KOBE/OBE METAR and TAF weather

Enter ICAO airport designator
Station Type Date Time Source
KOBE METAR 2022/08/16 19:35 UTC NOAA

KOBE 161935Z AUTO 24004KT 10SM VCTS SCT050 SCT055 BKN070 28/26 A2992 RMK AO2 LTG DSNT NW-E


Station Type Date Time Source
KOBE Decoded METAR 2022/08/16 19:35 UTC NOAA

Okeechobee County Airport, FL, United States (KOBE) 27-15-60N 080-51-02W
Aug 16, 2022 - 03:35 PM EDT / 2022.08.16 1935 UTC
Wind: from the WSW (240 degrees) at 5 MPH (4 KT):0
Visibility: 10 mile(s):0
Sky conditions: mostly cloudy
Weather: thunder in the vicinity; Lightning observed
Temperature: 82 F (28 C)
Dew Point: 78 F (26 C)
Relative Humidity: 88%
Pressure (altimeter): 29.92 in. Hg (1013 hPa)
ob: KOBE 161935Z AUTO 24004KT 10SM VCTS SCT050 SCT055 BKN070 28/26 A2992 RMK AO2 LTG DSNT NW-E
cycle: 19

Station Type Date Time Source
KOBE TAF UTC NOAA

Error!

Example: see airport list